Time;durP1;ratioP1;P1;durP2;ratioP2;P2;SDS_P1;SDS_P2;PMS_P1;PMS_P2;Temp;Humidity;BMP_temperature;BMP_pressure;BME280_temperature;BME280_humidity;BME280_pressure;Samples;Min_cycle;Max_cycle;Signal;HPM_P1;HPM_P2
2021/12/04 00:00:23;;;;;;;6.83;5.37;;;7.00;99.90;;;;;;5029078;28;20269;-84
2021/12/04 00:02:50;;;;;;;11.87;6.93;;;7.00;99.90;;;;;;5028171;28;20320;-85
2021/12/04 00:05:18;;;;;;;11.53;7.03;;;7.00;99.90;;;;;;5027561;28;20296;-85
2021/12/04 00:07:44;;;;;;;15.40;5.60;;;7.00;99.90;;;;;;5036092;28;20226;-83
2021/12/04 00:10:16;;;;;;;5.83;5.40;;;6.90;99.90;;;;;;5047735;28;20232;-82
2021/12/04 00:12:42;;;;;;;10.03;7.10;;;6.90;99.90;;;;;;5045817;28;20228;-83
2021/12/04 00:15:08;;;;;;;8.00;3.60;;;6.90;99.90;;;;;;5047101;28;20209;-83
2021/12/04 00:17:35;;;;;;;11.77;7.20;;;6.90;99.90;;;;;;5026023;28;20637;-84
2021/12/04 00:20:01;;;;;;;11.53;8.73;;;6.90;99.90;;;;;;5026320;28;20256;-82
2021/12/04 00:22:27;;;;;;;4.00;3.20;;;6.90;99.90;;;;;;5017221;28;20213;-82
2021/12/04 00:24:52;;;;;;;11.40;5.47;;;6.90;99.90;;;;;;5043449;28;20186;-82
2021/12/04 00:27:18;;;;;;;9.10;5.93;;;6.90;99.90;;;;;;5028141;28;20645;-82
2021/12/04 00:29:44;;;;;;;7.40;6.30;;;6.90;99.90;;;;;;5016918;28;20230;-82
2021/12/04 00:32:13;;;;;;;7.97;7.20;;;6.90;99.90;;;;;;5042946;28;20774;-84
2021/12/04 00:34:43;;;;;;;9.23;6.77;;;6.80;99.90;;;;;;5042893;28;20310;-82
2021/12/04 00:50:52;;;;;;;23.50;6.13;;;6.80;99.90;;;;;;5047608;28;20222;-85
2021/12/04 00:53:18;;;;;;;2.23;2.07;;;6.80;99.90;;;;;;5043287;28;20699;-84
2021/12/04 00:55:44;;;;;;;10.43;6.03;;;6.80;99.90;;;;;;5025648;28;20246;-84
2021/12/04 00:58:09;;;;;;;10.40;6.50;;;6.80;99.90;;;;;;5031176;28;20226;-85
2021/12/04 01:00:35;;;;;;;18.50;5.90;;;6.80;99.90;;;;;;5045870;28;20197;-84
2021/12/04 01:03:01;;;;;;;6.83;5.30;;;6.80;99.90;;;;;;5009442;28;20226;-90
2021/12/04 01:05:26;;;;;;;13.97;7.17;;;6.90;99.90;;;;;;5042683;28;20226;-82
2021/12/04 01:07:52;;;;;;;12.00;4.90;;;6.80;99.90;;;;;;5025297;28;20293;-84
2021/12/04 01:10:18;;;;;;;17.90;7.50;;;6.80;99.90;;;;;;5022131;28;20211;-84
2021/12/04 01:12:44;;;;;;;6.97;3.33;;;6.80;99.90;;;;;;5017257;28;20206;-83
2021/12/04 01:15:10;;;;;;;7.47;4.40;;;6.80;99.90;;;;;;5043452;28;20218;-86
2021/12/04 01:17:36;;;;;;;12.10;5.40;;;6.80;99.90;;;;;;5026405;28;20234;-82
2021/12/04 01:20:04;;;;;;;12.77;6.97;;;6.80;99.90;;;;;;5025095;28;20226;-83
2021/12/04 01:22:33;;;;;;;6.87;6.00;;;6.80;99.90;;;;;;5034560;28;20336;-82
2021/12/04 01:24:59;;;;;;;19.10;6.73;;;6.80;99.90;;;;;;5040620;28;20227;-82
2021/12/04 01:27:25;;;;;;;10.07;4.53;;;6.80;99.90;;;;;;5009659;28;20574;-82
2021/12/04 01:29:52;;;;;;;7.53;6.50;;;6.90;99.90;;;;;;5026565;28;20694;-85
2021/12/04 01:32:17;;;;;;;16.03;6.53;;;6.90;99.90;;;;;;5040099;28;20275;-82
2021/12/04 01:34:43;;;;;;;7.93;5.83;;;6.80;99.90;;;;;;5042249;28;20730;-86
2021/12/04 01:37:09;;;;;;;10.83;3.83;;;6.90;99.90;;;;;;5043279;28;20251;-84
2021/12/04 01:39:35;;;;;;;6.37;4.37;;;6.90;99.90;;;;;;5043297;28;20289;-86
2021/12/04 01:42:00;;;;;;;5.03;3.70;;;6.90;99.90;;;;;;4997925;28;20221;-81
2021/12/04 01:44:26;;;;;;;7.00;4.63;;;6.80;99.90;;;;;;5005348;28;20685;-83
2021/12/04 01:46:55;;;;;;;13.40;5.00;;;6.80;99.90;;;;;;5018304;28;20229;-83
2021/12/04 01:49:23;;;;;;;10.93;5.57;;;6.90;99.90;;;;;;5039536;28;20297;-84
2021/12/04 01:51:48;;;;;;;13.70;5.67;;;6.80;99.90;;;;;;5026652;28;20191;-83
2021/12/04 01:54:14;;;;;;;8.90;5.50;;;6.80;99.90;;;;;;5029048;28;20189;-82
2021/12/04 01:56:41;;;;;;;9.60;6.47;;;6.80;99.90;;;;;;5044194;28;20587;-83
2021/12/04 01:59:08;;;;;;;8.50;5.87;;;6.80;99.90;;;;;;5044715;28;20221;-83
2021/12/04 02:01:34;;;;;;;10.57;5.30;;;6.80;99.90;;;;;;5044406;28;20224;-82
2021/12/04 02:03:59;;;;;;;10.37;5.47;;;6.80;99.90;;;;;;5045511;28;20305;-82
2021/12/04 02:06:25;;;;;;;8.77;4.83;;;6.80;99.90;;;;;;5045450;28;20489;-81
2021/12/04 02:08:51;;;;;;;12.47;4.63;;;6.80;99.90;;;;;;5022930;28;20853;-81
2021/12/04 02:11:17;;;;;;;11.77;5.63;;;6.80;99.90;;;;;;5037926;28;20218;-86
2021/12/04 02:13:42;;;;;;;10.83;5.20;;;6.90;99.90;;;;;;5026469;28;20252;-82
2021/12/04 02:16:19;;;;;;;16.83;6.53;;;6.90;99.90;;;;;;5041980;28;20233;-82
2021/12/04 02:18:46;;;;;;;21.33;7.77;;;6.80;99.90;;;;;;5060018;28;20190;-85
2021/12/04 02:21:12;;;;;;;15.77;7.40;;;6.90;99.90;;;;;;5045538;28;20273;-81
2021/12/04 02:23:39;;;;;;;11.17;7.03;;;6.90;99.90;;;;;;5045096;28;20275;-86
2021/12/04 02:26:04;;;;;;;14.83;7.07;;;6.90;99.90;;;;;;5044117;28;20245;-82
2021/12/04 02:28:31;;;;;;;10.47;6.10;;;6.90;99.90;;;;;;5043417;28;20694;-81
2021/12/04 02:30:57;;;;;;;5.07;4.23;;;6.90;99.90;;;;;;5041508;28;20705;-84
2021/12/04 02:33:23;;;;;;;12.37;6.17;;;6.80;99.90;;;;;;5026527;28;20220;-85
2021/12/04 02:35:52;;;;;;;8.87;7.23;;;6.90;99.90;;;;;;5042876;28;20303;-86
2021/12/04 02:38:22;;;;;;;10.80;6.07;;;6.90;99.90;;;;;;5022571;28;20223;-84
2021/12/04 02:40:49;;;;;;;8.13;5.57;;;6.80;99.90;;;;;;5019527;28;20257;-83
2021/12/04 02:43:15;;;;;;;13.17;6.67;;;6.80;99.90;;;;;;5023196;28;20237;-83
2021/12/04 02:45:43;;;;;;;6.63;5.80;;;6.80;99.90;;;;;;5024257;28;20736;-84
2021/12/04 02:48:08;;;;;;;45.23;7.13;;;6.80;99.90;;;;;;5060761;28;20186;-84
2021/12/04 02:50:34;;;;;;;26.57;6.90;;;6.80;99.90;;;;;;5023512;28;20720;-86
2021/12/04 02:53:00;;;;;;;11.77;6.10;;;6.80;99.90;;;;;;5036256;28;20245;-83
2021/12/04 02:55:26;;;;;;;10.63;6.60;;;6.80;99.90;;;;;;5024758;28;20228;-83
2021/12/04 02:57:52;;;;;;;14.33;7.30;;;6.80;99.90;;;;;;5024836;28;20653;-84
2021/12/04 03:00:22;;;;;;;7.43;4.77;;;6.80;99.90;;;;;;5040636;28;20195;-84
2021/12/04 03:02:48;;;;;;;17.13;6.47;;;6.80;99.90;;;;;;5042265;28;20232;-83
2021/12/04 03:05:21;;;;;;;11.80;6.30;;;6.80;99.90;;;;;;5030979;28;20867;-84
2021/12/04 03:07:46;;;;;;;15.00;7.37;;;6.80;99.90;;;;;;5054329;28;20733;-83
2021/12/04 03:10:12;;;;;;;8.93;5.90;;;6.80;99.90;;;;;;5024519;28;20308;-88
2021/12/04 03:12:40;;;;;;;6.80;4.93;;;6.80;99.90;;;;;;5056628;28;20205;-83
2021/12/04 03:15:07;;;;;;;7.30;4.57;;;6.80;99.90;;;;;;5024400;28;21067;-83
2021/12/04 03:17:33;;;;;;;10.63;6.30;;;6.80;99.90;;;;;;5024301;28;20768;-84
2021/12/04 03:19:59;;;;;;;11.13;4.30;;;6.80;99.90;;;;;;5024679;28;20246;-84
2021/12/04 03:22:25;;;;;;;13.87;7.40;;;6.70;99.90;;;;;;5022897;28;20312;-84
2021/12/04 03:24:53;;;;;;;8.33;4.80;;;6.70;99.90;;;;;;5054173;28;20585;-87
2021/12/04 03:27:19;;;;;;;7.27;5.77;;;6.70;99.90;;;;;;5024361;28;20234;-87
2021/12/04 03:29:55;;;;;;;5.77;3.43;;;6.70;99.90;;;;;;5040523;28;20217;-83
2021/12/04 03:43:00;;;;;;;15.47;6.03;;;6.60;99.90;;;;;;5043221;28;20294;-86
2021/12/04 03:45:26;;;;;;;6.73;4.60;;;6.60;99.90;;;;;;5043823;28;20208;-82
2021/12/04 03:47:57;;;;;;;6.47;4.87;;;6.60;99.90;;;;;;5023252;28;20223;-83
2021/12/04 03:50:22;;;;;;;7.17;4.00;;;6.60;99.90;;;;;;5056491;28;20222;-83
2021/12/04 03:52:48;;;;;;;8.17;6.03;;;6.60;99.90;;;;;;5022052;28;20227;-86
2021/12/04 03:55:14;;;;;;;7.57;6.10;;;6.60;99.90;;;;;;5039939;28;20248;-85
2021/12/04 03:57:44;;;;;;;12.13;3.97;;;6.70;99.90;;;;;;5021723;28;20214;-87
2021/12/04 04:00:15;;;;;;;14.93;6.33;;;6.60;99.90;;;;;;5054789;28;20195;-84
2021/12/04 04:02:41;;;;;;;12.63;4.53;;;6.70;99.90;;;;;;5039319;28;20214;-89
2021/12/04 04:05:08;;;;;;;12.43;4.67;;;6.60;99.90;;;;;;5028248;28;20299;-84
2021/12/04 04:07:34;;;;;;;13.93;4.83;;;6.60;99.90;;;;;;5029473;28;20693;-85
2021/12/04 04:10:00;;;;;;;4.10;2.97;;;6.60;99.90;;;;;;5041821;28;20228;-83
2021/12/04 04:12:25;;;;;;;4.80;4.30;;;6.60;99.90;;;;;;5041704;28;20261;-83
2021/12/04 04:14:51;;;;;;;7.03;5.23;;;6.60;99.90;;;;;;5057747;28;20224;-86
2021/12/04 04:17:17;;;;;;;4.27;3.60;;;6.60;99.90;;;;;;5041965;28;20241;-83
2021/12/04 04:19:43;;;;;;;7.73;4.67;;;6.60;99.90;;;;;;5034372;28;20703;-85
2021/12/04 04:22:08;;;;;;;9.23;5.93;;;6.60;99.90;;;;;;5023925;28;20225;-83
2021/12/04 04:24:34;;;;;;;12.37;4.33;;;6.70;99.90;;;;;;5006639;28;20186;-82
2021/12/04 04:27:01;;;;;;;11.13;4.33;;;6.60;99.90;;;;;;5038868;28;20230;-83
2021/12/04 04:29:27;;;;;;;6.10;3.53;;;6.70;99.90;;;;;;5038667;28;20287;-83
2021/12/04 04:31:55;;;;;;;4.10;3.20;;;6.70;99.90;;;;;;5043993;28;20230;-83
2021/12/04 04:34:33;;;;;;;6.43;4.47;;;6.70;99.90;;;;;;5036253;28;20214;-88
2021/12/04 05:12:23;;;;;;;13.30;3.80;;;6.80;99.90;;;;;;5054548;28;20693;-83
2021/12/04 05:14:55;;;;;;;5.77;4.90;;;6.80;99.90;;;;;;5025518;28;20214;-83
2021/12/04 05:17:30;;;;;;;24.93;5.60;;;6.80;99.90;;;;;;5025404;28;20242;-83
2021/12/04 05:19:57;;;;;;;10.80;5.67;;;6.80;99.90;;;;;;5026471;28;20260;-81
2021/12/04 05:22:23;;;;;;;9.13;5.10;;;6.70;99.90;;;;;;5033074;28;20581;-84
2021/12/04 05:24:49;;;;;;;12.90;4.73;;;6.70;99.90;;;;;;5045830;28;20201;-84
2021/12/04 05:27:16;;;;;;;9.60;4.63;;;6.70;99.90;;;;;;5045374;28;20233;-84
2021/12/04 05:29:42;;;;;;;10.07;4.67;;;6.80;99.90;;;;;;5028683;28;20556;-83
2021/12/04 05:32:09;;;;;;;5.83;5.07;;;6.80;99.90;;;;;;5027077;28;20234;-83
2021/12/04 05:34:35;;;;;;;6.30;3.80;;;6.80;99.90;;;;;;5034194;28;20290;-83
2021/12/04 05:37:01;;;;;;;8.90;5.23;;;6.80;99.90;;;;;;5042155;28;20223;-83
2021/12/04 05:39:27;;;;;;;12.53;5.17;;;6.80;99.90;;;;;;5026959;28;20183;-82
2021/12/04 05:41:54;;;;;;;9.73;4.90;;;6.70;99.90;;;;;;5041024;28;20223;-84
2021/12/04 05:44:24;;;;;;;9.93;4.90;;;6.70;99.90;;;;;;5040248;28;20555;-87
2021/12/04 05:55:16;;;;;;;4.60;4.20;;;6.80;99.90;;;;;;5032652;28;20222;-82
2021/12/04 05:57:42;;;;;;;6.97;5.37;;;6.80;99.90;;;;;;5060399;28;20197;-82
2021/12/04 06:00:12;;;;;;;6.03;3.40;;;6.80;99.90;;;;;;5024410;28;20319;-83
2021/12/04 06:02:39;;;;;;;12.37;5.17;;;6.70;99.90;;;;;;5041819;28;20260;-82
2021/12/04 06:05:05;;;;;;;6.23;4.93;;;6.70;99.90;;;;;;5031297;28;20423;-83
2021/12/04 06:07:31;;;;;;;9.13;5.23;;;6.70;99.90;;;;;;5023791;28;20221;-84
2021/12/04 06:09:57;;;;;;;5.90;5.07;;;6.70;99.90;;;;;;5025274;28;20221;-83
2021/12/04 06:12:22;;;;;;;7.67;6.57;;;6.70;99.90;;;;;;5044962;28;20196;-85
2021/12/04 06:14:49;;;;;;;10.77;5.23;;;6.70;99.90;;;;;;5044479;28;20210;-81
2021/12/04 06:17:18;;;;;;;9.10;3.40;;;6.60;99.90;;;;;;5024452;28;20693;-82
2021/12/04 06:22:40;;;;;;;9.73;4.73;;;6.70;99.90;;;;;;5018748;28;20232;-82
2021/12/04 06:25:09;;;;;;;5.40;4.50;;;6.70;99.90;;;;;;5011731;28;20614;-83
2021/12/04 06:27:36;;;;;;;8.07;6.67;;;6.70;99.90;;;;;;5058743;28;20229;-83
2021/12/04 06:30:06;;;;;;;6.50;5.07;;;6.70;99.90;;;;;;5023096;28;20194;-86
2021/12/04 06:32:35;;;;;;;11.47;6.00;;;6.70;99.90;;;;;;5025332;28;20268;-85
2021/12/04 06:35:02;;;;;;;11.27;5.43;;;6.60;99.90;;;;;;5023586;28;20302;-83
2021/12/04 06:37:27;;;;;;;8.93;4.67;;;6.60;99.90;;;;;;5014135;28;20222;-83
2021/12/04 06:39:53;;;;;;;9.33;3.83;;;6.70;99.90;;;;;;5044929;28;20198;-84
2021/12/04 06:42:19;;;;;;;10.37;4.03;;;6.70;99.90;;;;;;5045816;28;20197;-85
2021/12/04 06:44:45;;;;;;;9.93;7.00;;;6.70;99.90;;;;;;5044108;28;21080;-82
2021/12/04 06:47:11;;;;;;;9.17;4.80;;;6.70;99.90;;;;;;5031032;28;20256;-86
2021/12/04 06:49:40;;;;;;;8.47;5.23;;;6.70;99.90;;;;;;5023524;28;20218;-86
2021/12/04 06:52:10;;;;;;;10.70;4.27;;;6.60;99.90;;;;;;5056891;28;20226;-85
2021/12/04 06:54:39;;;;;;;6.57;5.60;;;6.60;99.90;;;;;;5024233;28;20695;-83
2021/12/04 06:57:09;;;;;;;9.83;6.10;;;6.60;99.90;;;;;;5024356;28;20313;-82
2021/12/04 06:59:37;;;;;;;6.43;4.77;;;6.60;99.90;;;;;;5024546;28;20234;-86
2021/12/04 07:02:03;;;;;;;8.03;5.03;;;6.60;99.90;;;;;;5036614;28;20222;-84
2021/12/04 07:04:35;;;;;;;10.77;6.13;;;6.60;99.90;;;;;;5037334;28;20238;-88
2021/12/04 07:07:08;;;;;;;7.07;4.10;;;6.60;99.90;;;;;;5058365;28;21028;-83
2021/12/04 07:09:35;;;;;;;5.63;3.70;;;6.60;99.90;;;;;;5043209;28;20240;-86
2021/12/04 07:12:01;;;;;;;8.83;4.87;;;6.50;99.90;;;;;;5060203;28;20738;-84
2021/12/04 07:14:28;;;;;;;5.57;3.83;;;6.60;99.90;;;;;;5043136;28;20673;-83
2021/12/04 07:16:54;;;;;;;7.83;3.33;;;6.60;99.90;;;;;;5040277;28;20245;-85
2021/12/04 07:19:20;;;;;;;20.03;5.70;;;6.60;99.90;;;;;;5025140;28;20225;-83
2021/12/04 07:21:46;;;;;;;14.43;4.63;;;6.70;99.90;;;;;;5026243;28;20191;-83
2021/12/04 07:24:13;;;;;;;5.97;5.47;;;6.60;99.90;;;;;;5044886;28;20606;-82
2021/12/04 07:26:39;;;;;;;5.80;4.20;;;6.60;99.90;;;;;;5027334;28;20742;-82
2021/12/04 07:29:06;;;;;;;9.00;4.30;;;6.60;99.90;;;;;;5036542;28;20226;-84
2021/12/04 07:31:33;;;;;;;5.20;4.43;;;6.60;99.90;;;;;;5043248;28;20237;-89
2021/12/04 07:33:59;;;;;;;7.63;5.00;;;6.60;99.90;;;;;;5045073;28;20229;-83
2021/12/04 07:36:25;;;;;;;9.27;5.43;;;6.60;99.90;;;;;;5044339;28;20221;-83
2021/12/04 07:38:51;;;;;;;10.30;4.27;;;6.60;99.90;;;;;;5042947;28;20218;-91
2021/12/04 07:41:18;;;;;;;7.90;4.47;;;6.60;99.90;;;;;;5030575;28;20681;-85
2021/12/04 07:43:45;;;;;;;5.57;4.77;;;6.60;99.90;;;;;;5024629;28;20225;-82
2021/12/04 07:46:12;;;;;;;14.00;5.93;;;6.60;99.90;;;;;;5039054;28;20218;-86
2021/12/04 07:48:37;;;;;;;6.20;4.00;;;6.60;99.90;;;;;;5023918;28;20197;-84
2021/12/04 07:51:04;;;;;;;6.53;4.30;;;6.50;99.90;;;;;;5025158;28;20286;-83
2021/12/04 07:53:31;;;;;;;9.53;5.27;;;6.60;99.90;;;;;;5023678;28;20775;-85
2021/12/04 07:55:57;;;;;;;7.07;5.60;;;6.60;99.90;;;;;;5039866;28;20236;-81
2021/12/04 07:58:23;;;;;;;7.13;3.43;;;6.60;99.90;;;;;;5023395;28;20253;-83
2021/12/04 08:00:49;;;;;;;9.40;4.77;;;6.60;99.90;;;;;;5023029;28;20218;-84
2021/12/04 08:03:15;;;;;;;9.77;4.67;;;6.60;99.90;;;;;;5023445;28;20285;-85
2021/12/04 08:05:41;;;;;;;5.30;3.50;;;6.60;99.90;;;;;;5023078;28;20881;-88
2021/12/04 08:08:07;;;;;;;11.03;5.57;;;6.60;99.90;;;;;;5023800;28;20225;-83
2021/12/04 08:10:34;;;;;;;13.67;7.67;;;6.50;99.90;;;;;;5022704;28;20616;-84
2021/12/04 08:13:02;;;;;;;6.97;4.73;;;6.60;99.90;;;;;;5022953;28;21109;-84
2021/12/04 08:15:29;;;;;;;6.50;2.97;;;6.60;99.90;;;;;;5022017;28;20218;-83
2021/12/04 08:17:55;;;;;;;6.47;5.00;;;6.50;99.90;;;;;;5023055;28;20230;-85
2021/12/04 08:20:21;;;;;;;5.13;4.73;;;6.50;99.90;;;;;;5024597;28;20750;-89
2021/12/04 08:22:47;;;;;;;4.20;3.50;;;6.50;99.90;;;;;;5026502;28;20222;-82
2021/12/04 08:25:16;;;;;;;11.53;6.30;;;6.50;99.90;;;;;;5040854;28;20932;-81
2021/12/04 08:27:42;;;;;;;8.30;5.27;;;6.50;99.90;;;;;;5058110;28;20496;-89
2021/12/04 08:30:12;;;;;;;6.93;5.07;;;6.60;99.90;;;;;;5027385;28;20286;-83
2021/12/04 08:32:39;;;;;;;7.53;4.90;;;6.70;99.90;;;;;;5047437;28;20256;-83
2021/12/04 08:35:06;;;;;;;4.37;2.97;;;6.60;99.90;;;;;;5050221;28;20668;-82
2021/12/04 08:37:32;;;;;;;12.37;3.63;;;6.60;99.90;;;;;;5049102;28;20232;-83
2021/12/04 08:39:58;;;;;;;5.00;3.90;;;6.60;99.90;;;;;;5043298;28;20210;-84
2021/12/04 08:42:24;;;;;;;8.73;4.23;;;6.70;99.90;;;;;;5027889;28;20233;-84
2021/12/04 08:44:52;;;;;;;16.67;6.70;;;6.60;99.90;;;;;;5058463;28;20214;-88
2021/12/04 08:47:18;;;;;;;5.27;3.37;;;6.60;99.90;;;;;;5039740;28;20530;-85
2021/12/04 08:49:44;;;;;;;15.87;4.70;;;6.60;99.90;;;;;;5045490;28;20259;-84
2021/12/04 08:52:11;;;;;;;13.60;4.80;;;6.60;99.90;;;;;;5046526;28;20218;-86
2021/12/04 08:54:39;;;;;;;8.73;3.90;;;6.60;99.90;;;;;;5046283;28;20247;-83
2021/12/04 08:57:05;;;;;;;12.80;4.93;;;6.70;99.90;;;;;;5045804;28;20213;-85
2021/12/04 08:59:33;;;;;;;9.73;4.53;;;6.60;99.90;;;;;;5030291;28;20502;-88
2021/12/04 09:02:00;;;;;;;7.90;4.87;;;6.60;99.90;;;;;;5028451;28;20818;-87
2021/12/04 09:04:30;;;;;;;5.33;4.90;;;6.60;99.90;;;;;;5011017;28;20252;-84
2021/12/04 09:06:57;;;;;;;5.63;4.77;;;6.60;99.90;;;;;;5027125;28;21003;-83
2021/12/04 09:09:23;;;;;;;10.13;4.17;;;6.60;99.90;;;;;;5018844;28;20342;-83
2021/12/04 09:11:59;;;;;;;9.43;6.03;;;6.60;99.90;;;;;;5024428;28;20229;-87
2021/12/04 09:14:27;;;;;;;9.53;3.93;;;6.60;99.90;;;;;;5025933;28;21085;-83
2021/12/04 09:16:55;;;;;;;6.30;3.70;;;6.60;99.90;;;;;;5008733;28;20264;-82
2021/12/04 09:19:23;;;;;;;4.90;3.50;;;6.60;99.90;;;;;;5026498;28;20219;-82
2021/12/04 09:21:50;;;;;;;5.00;3.93;;;6.70;99.90;;;;;;5024912;28;20214;-84
2021/12/04 09:24:23;;;;;;;8.57;4.07;;;6.50;99.90;;;;;;5027583;28;20206;-82
2021/12/04 09:26:59;;;;;;;10.23;3.87;;;6.60;99.90;;;;;;5025481;28;20234;-85
2021/12/04 09:32:13;;;;;;;4.70;2.17;;;6.60;99.90;;;;;;5025040;28;20250;-82
2021/12/04 10:00:06;;;;;;;8.03;3.67;;;6.60;99.90;;;;;;5025348;28;20845;-84
2021/12/04 10:05:22;;;;;;;5.27;3.43;;;6.70;99.90;;;;;;5044549;28;20209;-84
2021/12/04 10:32:24;;;;;;;4.30;3.30;;;6.70;99.90;;;;;;5043129;28;20320;-86
2021/12/04 10:34:48;;;;;;;2.43;2.27;;;6.70;99.90;;;;;;5029596;28;20697;-85
2021/12/04 10:37:28;;;;;;;4.03;3.53;;;6.60;99.90;;;;;;5016454;28;20228;-86
2021/12/04 10:40:00;;;;;;;7.33;4.30;;;6.60;99.90;;;;;;5028920;28;20233;-86
2021/12/04 10:42:35;;;;;;;6.07;5.13;;;6.70;99.90;;;;;;5049852;28;20684;-85
2021/12/04 10:45:01;;;;;;;15.83;6.33;;;6.80;99.90;;;;;;5044749;28;20304;-85
2021/12/04 10:47:28;;;;;;;3.57;2.47;;;6.80;99.90;;;;;;5010436;28;20222;-86
2021/12/04 10:56:22;;;;;;;8.17;5.43;;;6.70;99.90;;;;;;5046669;28;20209;-86
2021/12/04 11:25:37;;;;;;;6.53;2.87;;;6.80;99.90;;;;;;5032458;28;20706;-85
2021/12/04 11:45:02;;;;;;;8.40;4.13;;;6.80;99.90;;;;;;4970085;28;20618;-86
2021/12/04 11:47:39;;;;;;;4.93;4.00;;;6.80;99.90;;;;;;5036810;28;20308;-86
2021/12/04 11:50:21;;;;;;;5.30;3.07;;;6.80;99.90;;;;;;5043763;28;20225;-86
2021/12/04 11:52:50;;;;;;;6.53;4.27;;;6.80;99.90;;;;;;5045622;28;20213;-86
2021/12/04 11:55:19;;;;;;;4.07;3.33;;;6.80;99.90;;;;;;5049316;28;20263;-86
2021/12/04 11:57:47;;;;;;;6.27;3.00;;;6.90;99.90;;;;;;5049510;28;20198;-84
2021/12/04 12:00:23;;;;;;;9.93;3.93;;;6.80;99.90;;;;;;5033436;28;20193;-86
2021/12/04 12:02:50;;;;;;;4.47;2.57;;;6.80;99.90;;;;;;5051041;28;20217;-86
2021/12/04 12:05:21;;;;;;;15.40;4.70;;;6.90;99.90;;;;;;5049860;28;20229;-84
2021/12/04 12:08:05;;;;;;;3.63;2.70;;;6.90;99.90;;;;;;5050600;28;20563;-85
2021/12/04 12:10:31;;;;;;;3.50;3.00;;;6.80;99.90;;;;;;5049969;28;20688;-86
2021/12/04 12:13:04;;;;;;;8.27;3.67;;;6.80;99.90;;;;;;5049272;28;20248;-88
2021/12/04 12:15:35;;;;;;;7.30;5.27;;;6.80;99.90;;;;;;5051179;28;20218;-86
2021/12/04 12:18:19;;;;;;;3.80;3.07;;;6.80;99.90;;;;;;5027813;28;20226;-86
2021/12/04 12:20:52;;;;;;;11.43;3.73;;;6.80;99.90;;;;;;5033000;28;20250;-83
2021/12/04 12:23:23;;;;;;;5.60;3.67;;;6.80;99.90;;;;;;5021483;28;20214;-86
2021/12/04 12:36:24;;;;;;;9.40;2.80;;;6.80;99.90;;;;;;5051108;28;20217;-83
2021/12/04 12:39:04;;;;;;;5.67;4.30;;;6.80;99.90;;;;;;5033882;28;20349;-85
2021/12/04 12:41:40;;;;;;;4.77;4.03;;;6.80;99.90;;;;;;5034187;28;20356;-84
2021/12/04 12:44:27;;;;;;;9.83;5.60;;;6.80;99.90;;;;;;5059731;28;20222;-83
2021/12/04 12:46:56;;;;;;;5.47;4.93;;;6.90;99.90;;;;;;5052324;28;20232;-82
2021/12/04 12:49:38;;;;;;;4.80;4.37;;;6.80;99.90;;;;;;5052601;28;20221;-82
2021/12/04 12:52:24;;;;;;;10.43;5.47;;;6.80;99.90;;;;;;5055618;28;20218;-81
2021/12/04 12:54:58;;;;;;;7.43;4.60;;;6.90;99.90;;;;;;5045639;28;20174;-82
2021/12/04 12:57:28;;;;;;;7.07;3.40;;;6.90;99.90;;;;;;5054565;28;20205;-82
2021/12/04 13:14:22;;;;;;;1.87;1.70;;;6.80;99.90;;;;;;5003702;28;20227;-83
2021/12/04 13:16:56;;;;;;;6.27;3.77;;;6.80;99.90;;;;;;5043995;28;20226;-84
2021/12/04 13:19:23;;;;;;;9.73;4.73;;;6.80;99.90;;;;;;5034651;28;20242;-85
2021/12/04 13:21:53;;;;;;;7.23;3.93;;;6.80;99.90;;;;;;5033502;28;20195;-85
2021/12/04 13:24:25;;;;;;;5.07;3.70;;;6.80;99.90;;;;;;5051903;28;20189;-83
2021/12/04 13:26:53;;;;;;;9.53;4.03;;;6.90;99.90;;;;;;5046658;28;20237;-85
2021/12/04 13:29:22;;;;;;;11.67;3.50;;;6.90;99.90;;;;;;5028498;28;20247;-85
2021/12/04 13:31:51;;;;;;;4.03;3.37;;;6.80;99.90;;;;;;5027462;28;20218;-85
2021/12/04 13:34:23;;;;;;;5.43;3.07;;;6.90;99.90;;;;;;5025539;28;20810;-84
2021/12/04 13:36:49;;;;;;;1.37;1.23;;;6.90;99.90;;;;;;5025787;28;20218;-85
2021/12/04 13:39:18;;;;;;;3.77;2.90;;;6.90;99.90;;;;;;5010349;28;20182;-84
2021/12/04 13:41:45;;;;;;;8.93;4.27;;;6.90;99.90;;;;;;5010063;28;20322;-85
2021/12/04 13:44:13;;;;;;;2.97;2.77;;;6.90;99.90;;;;;;5025587;28;20214;-87
2021/12/04 13:46:44;;;;;;;4.33;3.13;;;6.90;99.90;;;;;;5026106;28;20305;-85
2021/12/04 13:49:12;;;;;;;4.77;2.73;;;6.90;99.90;;;;;;5025852;28;20246;-85
2021/12/04 13:51:39;;;;;;;6.90;3.83;;;6.90;99.90;;;;;;5024902;28;20233;-86
2021/12/04 13:54:06;;;;;;;5.57;3.27;;;6.90;99.90;;;;;;5026840;28;20195;-85
2021/12/04 13:56:33;;;;;;;2.87;2.57;;;6.90;99.90;;;;;;5025542;28;20234;-85
2021/12/04 13:59:03;;;;;;;1.87;1.77;;;6.90;99.90;;;;;;5025668;28;20225;-84
2021/12/04 14:01:36;;;;;;;10.23;4.43;;;6.90;99.90;;;;;;5025561;28;20682;-84
2021/12/04 14:04:03;;;;;;;6.30;3.90;;;6.90;99.90;;;;;;5022554;28;20227;-90
2021/12/04 14:06:29;;;;;;;3.53;2.43;;;6.90;99.90;;;;;;5022898;28;20274;-85
2021/12/04 14:08:59;;;;;;;9.60;4.13;;;6.90;99.90;;;;;;5025897;28;20346;-90
2021/12/04 14:11:34;;;;;;;5.03;4.37;;;7.00;99.90;;;;;;5026426;28;20569;-91
2021/12/04 14:14:20;;;;;;;2.90;2.23;;;7.00;99.90;;;;;;5025144;28;20991;-93
2021/12/04 14:16:51;;;;;;;4.83;4.30;;;7.00;99.90;;;;;;5024645;28;20412;-91
2021/12/04 14:19:26;;;;;;;6.80;2.40;;;7.00;99.90;;;;;;5015433;28;20228;-91
2021/12/04 14:22:04;;;;;;;8.20;4.43;;;7.00;99.90;;;;;;5034554;28;20212;-91
2021/12/04 14:24:56;;;;;;;5.30;3.97;;;7.00;99.90;;;;;;5060274;28;20202;-91
2021/12/04 14:27:25;;;;;;;6.77;3.80;;;7.00;99.90;;;;;;4994366;28;1446749;-91
2021/12/04 14:30:04;;;;;;;9.73;4.20;;;7.00;99.90;;;;;;5020755;28;20313;-91
2021/12/04 14:32:37;;;;;;;16.30;4.37;;;7.10;99.90;;;;;;5028584;28;20279;-90
2021/12/04 14:35:10;;;;;;;6.47;4.57;;;7.10;99.90;;;;;;5045636;28;20251;-90
2021/12/04 14:37:41;;;;;;;5.43;4.00;;;7.10;99.90;;;;;;5044390;28;20211;-92
2021/12/04 14:40:14;;;;;;;10.73;6.63;;;7.10;99.90;;;;;;5026963;28;20230;-92
2021/12/04 14:42:43;;;;;;;18.23;6.87;;;7.00;99.90;;;;;;5026848;28;20220;-92
2021/12/04 14:45:20;;;;;;;6.67;5.10;;;7.10;99.90;;;;;;5046195;28;20387;-92
2021/12/04 14:47:54;;;;;;;12.53;5.73;;;7.00;99.90;;;;;;5026408;28;20689;-90
2021/12/04 14:50:23;;;;;;;15.90;8.33;;;7.00;99.90;;;;;;5045641;28;20297;-91
2021/12/04 14:52:57;;;;;;;9.37;4.80;;;7.10;99.90;;;;;;5025682;28;20225;-90
2021/12/04 14:55:32;;;;;;;8.63;5.93;;;7.10;99.90;;;;;;5026377;28;20816;-92
2021/12/04 14:58:07;;;;;;;7.67;3.97;;;7.00;99.90;;;;;;5036286;28;20229;-92
2021/12/04 15:00:36;;;;;;;7.37;6.57;;;7.10;99.90;;;;;;5047972;28;20182;-92
2021/12/04 15:03:14;;;;;;;11.70;6.40;;;7.10;99.90;;;;;;5047392;28;20359;-93
2021/12/04 15:05:48;;;;;;;7.90;4.47;;;7.10;99.90;;;;;;5047368;28;20694;-92
2021/12/04 15:08:21;;;;;;;14.40;7.33;;;7.10;99.90;;;;;;5046590;28;20708;-92
2021/12/04 15:10:55;;;;;;;7.53;3.90;;;7.00;99.90;;;;;;5045857;28;20241;-92
2021/12/04 15:13:26;;;;;;;6.77;4.10;;;7.00;99.90;;;;;;5043260;28;20265;-93
2021/12/04 15:15:53;;;;;;;15.67;6.37;;;7.00;99.90;;;;;;5030655;28;20215;-91
2021/12/04 15:18:23;;;;;;;7.53;5.90;;;7.00;99.90;;;;;;5046184;28;20186;-90
2021/12/04 15:21:01;;;;;;;15.30;9.80;;;7.10;99.90;;;;;;5027247;28;20223;-92
2021/12/04 15:23:29;;;;;;;16.03;10.00;;;7.10;99.90;;;;;;5040085;28;20234;-92
2021/12/04 15:25:59;;;;;;;5.10;3.83;;;7.10;99.90;;;;;;5035670;28;20767;-93
2021/12/04 15:28:28;;;;;;;7.07;6.17;;;7.00;99.90;;;;;;5040894;28;20241;-92
2021/12/04 15:30:57;;;;;;;7.60;4.87;;;7.00;99.90;;;;;;5020944;28;20214;-92
2021/12/04 15:33:35;;;;;;;11.93;8.17;;;7.00;99.90;;;;;;5038853;28;20186;-93
2021/12/04 15:36:02;;;;;;;6.73;4.53;;;7.10;99.90;;;;;;5024638;28;20226;-92
2021/12/04 15:38:51;;;;;;;8.70;4.27;;;7.10;99.90;;;;;;5057692;28;20237;-91
2021/12/04 15:41:34;;;;;;;7.87;4.83;;;7.10;99.90;;;;;;5025263;28;20269;-92
2021/12/04 15:47:06;;;;;;;10.13;4.10;;;7.10;99.90;;;;;;5034709;28;20291;-89
2021/12/04 15:49:55;;;;;;;7.73;3.77;;;7.20;99.90;;;;;;5036816;28;20265;-88
2021/12/04 15:55:25;;;;;;;5.37;3.00;;;7.20;99.90;;;;;;5006883;28;20220;-91
2021/12/04 15:57:59;;;;;;;6.40;5.70;;;7.20;99.90;;;;;;5059532;28;20251;-92
2021/12/04 16:00:32;;;;;;;12.23;8.43;;;7.10;99.90;;;;;;5043430;28;20272;-94
2021/12/04 16:03:00;;;;;;;10.30;5.00;;;7.10;99.90;;;;;;5024165;28;20300;-92
2021/12/04 16:05:31;;;;;;;11.23;7.43;;;7.20;99.90;;;;;;5056843;28;20223;-92
2021/12/04 16:08:07;;;;;;;13.30;6.93;;;7.10;99.90;;;;;;5036042;28;20299;-92
2021/12/04 16:10:38;;;;;;;7.67;4.77;;;7.10;99.90;;;;;;5043862;28;20678;-92
2021/12/04 16:15:47;;;;;;;14.37;7.80;;;7.20;99.90;;;;;;4924761;27;4100026;-92
2021/12/04 16:18:17;;;;;;;7.13;3.70;;;7.20;99.90;;;;;;5006071;28;20316;-91
2021/12/04 16:20:46;;;;;;;8.93;4.23;;;7.20;99.90;;;;;;5020570;28;20281;-91
2021/12/04 16:23:14;;;;;;;8.07;4.10;;;7.20;99.90;;;;;;5018093;28;20245;-91
2021/12/04 16:25:41;;;;;;;6.90;4.23;;;7.20;99.90;;;;;;5055543;28;20282;-90
2021/12/04 16:33:53;;;;;;;5.33;4.47;;;7.20;99.90;;;;;;5022699;28;20202;-91
2021/12/04 16:36:26;;;;;;;9.50;4.30;;;7.20;99.90;;;;;;5042026;28;20268;-91